createdAt,value
2018-11-11T00:03:16.135Z,102.17
2018-11-11T00:13:20.565Z,109.03
2018-11-11T00:23:24.834Z,94.87
2018-11-11T00:33:29.086Z,89.77
2018-11-11T00:43:33.334Z,79.57
2018-11-11T00:53:37.582Z,97.83
2018-11-11T01:03:41.879Z,96.53
2018-11-11T01:13:46.243Z,90.30
2018-11-11T01:23:50.526Z,91.90
2018-11-11T01:33:54.730Z,92.17
2018-11-11T01:43:59.003Z,84.47
2018-11-11T01:54:03.287Z,82.27
2018-11-11T02:04:07.634Z,81.60
2018-11-11T02:14:11.942Z,75.13
2018-11-11T02:24:16.392Z,72.00
2018-11-11T02:34:20.831Z,74.13
2018-11-11T02:44:25.134Z,68.93
2018-11-11T02:54:29.549Z,70.37
2018-11-11T03:04:34.003Z,66.03
2018-11-11T03:14:38.242Z,66.40
2018-11-11T03:24:42.495Z,71.10
2018-11-11T03:34:46.754Z,66.63
2018-11-11T03:44:51.026Z,68.57
2018-11-11T03:54:55.286Z,66.93
2018-11-11T04:04:59.546Z,60.37
2018-11-11T04:15:03.900Z,66.83
2018-11-11T04:25:08.380Z,62.07
2018-11-11T04:35:13.035Z,77.13
2018-11-11T04:45:17.356Z,73.53
2018-11-11T04:55:21.632Z,70.07
2018-11-11T05:05:25.950Z,60.80
2018-11-11T05:15:30.377Z,67.87
2018-11-11T05:25:34.738Z,64.07
2018-11-11T05:35:39.062Z,64.77
2018-11-11T05:45:43.272Z,72.07
2018-11-11T05:55:47.574Z,64.27
2018-11-11T06:05:51.933Z,69.50
2018-11-11T06:15:56.188Z,67.73
2018-11-11T06:26:00.461Z,61.80
2018-11-11T06:36:04.958Z,72.13
2018-11-11T06:46:09.230Z,77.07
2018-11-11T06:56:13.531Z,68.97
2018-11-11T07:06:17.830Z,66.73
2018-11-11T07:16:22.063Z,67.73
2018-11-11T07:26:26.318Z,72.43
2018-11-11T07:36:30.560Z,74.43
2018-11-11T07:46:34.930Z,73.27
2018-11-11T07:56:39.302Z,67.20
2018-11-11T08:06:43.607Z,65.20
2018-11-11T08:16:47.961Z,71.63
2018-11-11T08:26:52.547Z,67.27
2018-11-11T08:36:56.898Z,67.17
2018-11-11T08:47:01.190Z,69.57
2018-11-11T08:57:05.679Z,68.17
2018-11-11T09:07:10.026Z,72.47
2018-11-11T09:17:14.345Z,75.13
2018-11-11T09:27:18.593Z,68.40
2018-11-11T09:37:22.890Z,70.30
2018-11-11T09:47:27.238Z,64.10
2018-11-11T09:57:31.547Z,69.10
2018-11-11T10:07:44.306Z,69.50
2018-11-11T10:17:54.430Z,66.17
2018-11-11T10:28:06.087Z,67.60
2018-11-11T10:38:15.693Z,64.33
2018-11-11T10:48:23.458Z,54.77
2018-11-11T10:58:28.358Z,50.07
2018-11-11T11:08:32.903Z,58.87
2018-11-11T11:18:37.219Z,54.53
2018-11-11T11:28:41.619Z,56.80
2018-11-11T11:38:45.870Z,58.03
2018-11-11T11:48:50.242Z,67.73
2018-11-11T11:58:54.613Z,57.57
2018-11-11T12:08:59.063Z,59.43
2018-11-11T12:19:03.359Z,67.50
2018-11-11T12:29:07.794Z,59.97
2018-11-11T12:39:13.181Z,67.53
2018-11-11T12:49:17.762Z,67.27
2018-11-11T12:59:22.082Z,63.83
2018-11-11T13:09:26.461Z,61.97
2018-11-11T13:19:30.857Z,68.23
2018-11-11T13:29:35.111Z,71.67
2018-11-11T13:39:39.412Z,65.37
2018-11-11T13:49:43.714Z,65.73
2018-11-11T13:59:48.054Z,68.10
2018-11-11T14:09:52.405Z,138.40
2018-11-11T14:19:56.734Z,70.97
2018-11-11T14:30:01.171Z,179.67
2018-11-11T14:40:15.826Z,153.53
2018-11-11T14:50:20.746Z,88.33
2018-11-11T15:00:26.424Z,339.13
2018-11-11T15:10:30.880Z,325.07
2018-11-11T15:20:35.695Z,347.20
2018-11-11T15:30:40.057Z,212.80
2018-11-11T15:40:44.338Z,199.97
2018-11-11T15:50:48.630Z,242.70
2018-11-11T16:00:53.073Z,225.73
2018-11-11T16:10:57.422Z,186.40
2018-11-11T16:21:01.753Z,86.13
2018-11-11T16:31:06.111Z,76.90
2018-11-11T16:41:10.658Z,81.23
2018-11-11T16:51:14.765Z,80.33
2018-11-11T17:01:19.340Z,77.53
2018-11-11T17:11:23.662Z,73.00
2018-11-11T17:21:27.998Z,83.53
2018-11-11T17:31:32.273Z,80.53
2018-11-11T17:41:36.602Z,83.87
2018-11-11T17:51:41.155Z,83.70
2018-11-11T18:01:45.462Z,83.43
2018-11-11T18:11:49.758Z,81.63
2018-11-11T18:21:54.225Z,78.57
2018-11-11T18:31:58.530Z,83.00
2018-11-11T18:42:02.819Z,80.90
2018-11-11T18:52:07.126Z,83.27
2018-11-11T19:02:11.426Z,84.77
2018-11-11T19:12:15.717Z,77.77
2018-11-11T19:22:20.070Z,84.97
2018-11-11T19:32:24.362Z,86.23
2018-11-11T19:42:28.726Z,93.23
2018-11-11T19:52:32.999Z,85.50
2018-11-11T20:02:37.386Z,91.03
2018-11-11T20:12:41.661Z,91.43
2018-11-11T20:22:46.086Z,84.77
2018-11-11T20:32:50.411Z,97.70
2018-11-11T20:42:55.216Z,91.03
2018-11-11T20:53:00.813Z,87.47
2018-11-11T21:03:05.462Z,100.40
2018-11-11T21:13:09.858Z,103.40
2018-11-11T21:23:14.220Z,91.60
2018-11-11T21:33:18.482Z,88.33
2018-11-11T21:43:22.726Z,85.60
2018-11-11T21:53:29.842Z,78.83
2018-11-11T22:03:34.174Z,77.07
2018-11-11T22:13:38.982Z,92.43
2018-11-11T22:23:43.224Z,85.53
2018-11-11T22:33:47.479Z,86.10
2018-11-11T22:43:51.777Z,87.97
2018-11-11T22:53:56.248Z,78.50
2018-11-11T23:04:00.510Z,85.07
2018-11-11T23:14:04.862Z,97.77
2018-11-11T23:24:09.168Z,97.30
2018-11-11T23:34:13.897Z,83.40
2018-11-11T23:44:19.081Z,79.63
2018-11-11T23:54:23.562Z,82.40
